Takamatsu Airport, Japan

5:08 AM JST on August 27, 2016 (GMT +0900)
Ignaz-Köck-Straße | | Change Station

Elev 114 ft 34.29 °N, 134.04 °E | Updated 7 minutes ago

Light Rain Showers
Light Showers Rain
79.2 °F
Feels Like 83 °F
N
1.9
Wind Variable Wind from WNW
Gusts 3.1 mph

Today
High -- | Low -- °F
--% Chance of Precip.
Yesterday
High -- | Low -- °F
Precip. -- in
Pressure 29.68 in
Visibility 6.2 miles
Clouds Few 800 ft
Mostly Cloudy 2000 ft
Mostly Cloudy 6000 ft
Heat Index 83 °F
Dew Point 73 °F
Humidity 81%
Rainfall 0.00 in
Snow Depth Not available.
5:33 AM 6:36 PM
Waning Crescent, 31% visible
SPECI RJOS 261912Z 31005KT 9999 -SHRA FEW008 BKN020 BKN060 25/23 Q1005 RMK 2ST008 5CU020 7SC060 A2969
Pressure 29.68 in
Visibility 6.2 miles
Clouds Few 800 ft
Mostly Cloudy 2000 ft
Mostly Cloudy 6000 ft
Heat Index 83 °F
Dew Point 73 °F
Humidity 81%
Rainfall 0.00 in
Snow Depth Not available.
5:33 AM 6:36 PM
Waning Crescent, 31% visible
SPECI RJOS 261912Z 31005KT 9999 -SHRA FEW008 BKN020 BKN060 25/23 Q1005 RMK 2ST008 5CU020 7SC060 A2969

10-Day Weather Forecast

No radar image for this location.
×

Almanac

Astronomy

Aug. 27, 2016 Rise Set
Actual Time
Civil Twilight
Nautical Twilight
Astronomical Twilight
Moon
Length of Visible Light
Length of Day
Tomorrow will be .
, % of the Moon is Illuminated

Today's Extremes

Country Highs Country Lows

Community

WunderPhotos

Upload Photos

1,935,191 photos uploaded!

WunderBlog® & News

Nearby

Air Quality

  Air Quality AQ Index Pollutant
Not available.

Snow Depth

Station Depth Elevation

Earthquake Activity

City Distance Mag. Time & Date
Minimum magnitude displayed is 2.5.

Coastal Water Temperatures

Place Temperature

Stations

Nearby Weather Stations

Station Location Temp. Windchill Dew Point Humidity Wind Precip. Elev Updated Type